sensor_id;sensor_type;location;lat;lon;timestamp;P1;durP1;ratioP1;P2;durP2;ratioP2
64609;SDS011;51019;46.090;6.350;2023-08-01T00:01:50;12.02;;;2.85;;
64609;SDS011;51019;46.090;6.350;2023-08-01T00:04:18;10.77;;;3.15;;
64609;SDS011;51019;46.090;6.350;2023-08-01T00:06:55;11.20;;;3.20;;
64609;SDS011;51019;46.090;6.350;2023-08-01T00:09:23;10.88;;;3.00;;
64609;SDS011;51019;46.090;6.350;2023-08-01T00:11:53;11.23;;;3.03;;
64609;SDS011;51019;46.090;6.350;2023-08-01T00:14:20;13.70;;;3.58;;
64609;SDS011;51019;46.090;6.350;2023-08-01T00:16:50;12.57;;;3.50;;
64609;SDS011;51019;46.090;6.350;2023-08-01T00:19:21;13.45;;;3.80;;
64609;SDS011;51019;46.090;6.350;2023-08-01T00:21:49;12.73;;;3.53;;
64609;SDS011;51019;46.090;6.350;2023-08-01T00:24:16;11.25;;;3.38;;
64609;SDS011;51019;46.090;6.350;2023-08-01T00:26:44;12.35;;;3.22;;
64609;SDS011;51019;46.090;6.350;2023-08-01T00:29:14;12.35;;;3.17;;
64609;SDS011;51019;46.090;6.350;2023-08-01T00:31:44;12.57;;;3.23;;
64609;SDS011;51019;46.090;6.350;2023-08-01T00:34:14;11.82;;;3.22;;
64609;SDS011;51019;46.090;6.350;2023-08-01T00:36:42;12.65;;;3.30;;
64609;SDS011;51019;46.090;6.350;2023-08-01T00:39:09;13.43;;;3.22;;
64609;SDS011;51019;46.090;6.350;2023-08-01T00:41:37;10.75;;;3.10;;
64609;SDS011;51019;46.090;6.350;2023-08-01T00:44:05;12.30;;;2.83;;
64609;SDS011;51019;46.090;6.350;2023-08-01T00:46:38;13.90;;;3.45;;
64609;SDS011;51019;46.090;6.350;2023-08-01T00:49:08;11.27;;;3.70;;
64609;SDS011;51019;46.090;6.350;2023-08-01T00:51:35;11.10;;;3.28;;
64609;SDS011;51019;46.090;6.350;2023-08-01T00:54:03;12.57;;;3.53;;
64609;SDS011;51019;46.090;6.350;2023-08-01T00:56:30;9.95;;;3.05;;
64609;SDS011;51019;46.090;6.350;2023-08-01T00:59:00;14.95;;;3.55;;
64609;SDS011;51019;46.090;6.350;2023-08-01T01:01:28;12.07;;;3.55;;
64609;SDS011;51019;46.090;6.350;2023-08-01T01:03:58;10.98;;;3.28;;
64609;SDS011;51019;46.090;6.350;2023-08-01T01:06:28;11.90;;;2.75;;
64609;SDS011;51019;46.090;6.350;2023-08-01T01:09:01;12.48;;;3.38;;
64609;SDS011;51019;46.090;6.350;2023-08-01T01:11:30;11.10;;;3.40;;
64609;SDS011;51019;46.090;6.350;2023-08-01T01:13:57;12.32;;;3.20;;
64609;SDS011;51019;46.090;6.350;2023-08-01T01:16:24;11.27;;;3.28;;
64609;SDS011;51019;46.090;6.350;2023-08-01T01:18:52;10.45;;;3.28;;
64609;SDS011;51019;46.090;6.350;2023-08-01T01:21:27;10.45;;;3.13;;
64609;SDS011;51019;46.090;6.350;2023-08-01T01:23:55;13.90;;;3.53;;
64609;SDS011;51019;46.090;6.350;2023-08-01T01:26:24;12.88;;;4.07;;
64609;SDS011;51019;46.090;6.350;2023-08-01T01:28:53;12.73;;;3.28;;
64609;SDS011;51019;46.090;6.350;2023-08-01T01:31:25;12.48;;;3.42;;
64609;SDS011;51019;46.090;6.350;2023-08-01T01:33:54;11.77;;;3.58;;
64609;SDS011;51019;46.090;6.350;2023-08-01T01:36:41;12.90;;;2.97;;
64609;SDS011;51019;46.090;6.350;2023-08-01T01:39:16;11.48;;;3.33;;
64609;SDS011;51019;46.090;6.350;2023-08-01T01:41:43;11.88;;;3.67;;
64609;SDS011;51019;46.090;6.350;2023-08-01T01:44:13;10.70;;;3.33;;
64609;SDS011;51019;46.090;6.350;2023-08-01T01:46:42;12.38;;;3.75;;
64609;SDS011;51019;46.090;6.350;2023-08-01T01:49:31;12.80;;;3.45;;
64609;SDS011;51019;46.090;6.350;2023-08-01T01:52:04;11.57;;;3.45;;
64609;SDS011;51019;46.090;6.350;2023-08-01T01:54:33;14.13;;;3.72;;
64609;SDS011;51019;46.090;6.350;2023-08-01T01:57:01;11.40;;;3.65;;
64609;SDS011;51019;46.090;6.350;2023-08-01T01:59:30;12.50;;;3.10;;
64609;SDS011;51019;46.090;6.350;2023-08-01T02:01:58;12.00;;;3.25;;
64609;SDS011;51019;46.090;6.350;2023-08-01T02:04:29;11.85;;;4.03;;
64609;SDS011;51019;46.090;6.350;2023-08-01T02:06:58;13.95;;;3.78;;
64609;SDS011;51019;46.090;6.350;2023-08-01T02:09:27;11.57;;;3.72;;
64609;SDS011;51019;46.090;6.350;2023-08-01T02:11:57;14.07;;;3.83;;
64609;SDS011;51019;46.090;6.350;2023-08-01T02:14:26;11.25;;;3.50;;
64609;SDS011;51019;46.090;6.350;2023-08-01T02:16:53;14.18;;;3.60;;
64609;SDS011;51019;46.090;6.350;2023-08-01T02:19:20;11.43;;;3.25;;
64609;SDS011;51019;46.090;6.350;2023-08-01T02:21:49;10.48;;;3.10;;
64609;SDS011;51019;46.090;6.350;2023-08-01T02:24:16;12.65;;;3.88;;
64609;SDS011;51019;46.090;6.350;2023-08-01T02:26:45;14.95;;;3.90;;
64609;SDS011;51019;46.090;6.350;2023-08-01T02:29:15;13.23;;;3.70;;
64609;SDS011;51019;46.090;6.350;2023-08-01T02:31:45;11.82;;;3.45;;
64609;SDS011;51019;46.090;6.350;2023-08-01T02:34:15;10.32;;;3.10;;
64609;SDS011;51019;46.090;6.350;2023-08-01T02:36:44;12.13;;;3.28;;
64609;SDS011;51019;46.090;6.350;2023-08-01T02:39:12;12.88;;;3.88;;
64609;SDS011;51019;46.090;6.350;2023-08-01T02:41:39;14.60;;;3.45;;
64609;SDS011;51019;46.090;6.350;2023-08-01T02:44:09;11.57;;;3.60;;
64609;SDS011;51019;46.090;6.350;2023-08-01T02:46:38;12.82;;;3.60;;
64609;SDS011;51019;46.090;6.350;2023-08-01T02:49:05;12.43;;;3.30;;
64609;SDS011;51019;46.090;6.350;2023-08-01T02:51:33;14.85;;;3.80;;
64609;SDS011;51019;46.090;6.350;2023-08-01T02:54:02;10.98;;;3.08;;
64609;SDS011;51019;46.090;6.350;2023-08-01T02:56:29;9.63;;;2.85;;
64609;SDS011;51019;46.090;6.350;2023-08-01T02:58:58;13.68;;;3.55;;
64609;SDS011;51019;46.090;6.350;2023-08-01T03:01:27;12.10;;;3.67;;
64609;SDS011;51019;46.090;6.350;2023-08-01T03:03:54;10.20;;;3.10;;
64609;SDS011;51019;46.090;6.350;2023-08-01T03:06:21;10.38;;;3.15;;
64609;SDS011;51019;46.090;6.350;2023-08-01T03:08:48;10.93;;;3.83;;
64609;SDS011;51019;46.090;6.350;2023-08-01T03:11:16;11.88;;;3.53;;
64609;SDS011;51019;46.090;6.350;2023-08-01T03:13:44;10.30;;;3.25;;
64609;SDS011;51019;46.090;6.350;2023-08-01T03:16:11;12.05;;;3.40;;
64609;SDS011;51019;46.090;6.350;2023-08-01T03:18:43;11.85;;;3.15;;
64609;SDS011;51019;46.090;6.350;2023-08-01T03:21:15;12.55;;;3.35;;
64609;SDS011;51019;46.090;6.350;2023-08-01T03:23:45;14.43;;;3.97;;
64609;SDS011;51019;46.090;6.350;2023-08-01T03:26:13;10.88;;;3.30;;
64609;SDS011;51019;46.090;6.350;2023-08-01T03:28:43;13.07;;;3.33;;
64609;SDS011;51019;46.090;6.350;2023-08-01T03:31:10;14.27;;;3.47;;
64609;SDS011;51019;46.090;6.350;2023-08-01T03:33:40;12.77;;;3.45;;
64609;SDS011;51019;46.090;6.350;2023-08-01T03:36:12;11.15;;;3.60;;
64609;SDS011;51019;46.090;6.350;2023-08-01T03:38:41;12.90;;;3.30;;
64609;SDS011;51019;46.090;6.350;2023-08-01T03:41:10;12.40;;;3.05;;
64609;SDS011;51019;46.090;6.350;2023-08-01T03:43:40;10.80;;;3.15;;
64609;SDS011;51019;46.090;6.350;2023-08-01T03:46:08;12.35;;;3.03;;
64609;SDS011;51019;46.090;6.350;2023-08-01T03:48:36;11.65;;;3.10;;
64609;SDS011;51019;46.090;6.350;2023-08-01T03:51:03;12.75;;;3.20;;
64609;SDS011;51019;46.090;6.350;2023-08-01T03:53:32;12.73;;;3.47;;
64609;SDS011;51019;46.090;6.350;2023-08-01T03:56:01;11.80;;;3.53;;
64609;SDS011;51019;46.090;6.350;2023-08-01T03:58:28;11.30;;;3.35;;
64609;SDS011;51019;46.090;6.350;2023-08-01T04:00:56;12.57;;;3.40;;
64609;SDS011;51019;46.090;6.350;2023-08-01T04:03:24;14.35;;;3.72;;
64609;SDS011;51019;46.090;6.350;2023-08-01T04:05:51;10.55;;;3.15;;
64609;SDS011;51019;46.090;6.350;2023-08-01T04:08:19;11.32;;;3.63;;
64609;SDS011;51019;46.090;6.350;2023-08-01T04:10:49;11.85;;;3.75;;
64609;SDS011;51019;46.090;6.350;2023-08-01T04:13:16;13.02;;;3.63;;
64609;SDS011;51019;46.090;6.350;2023-08-01T04:15:43;13.23;;;3.50;;
64609;SDS011;51019;46.090;6.350;2023-08-01T04:18:11;12.43;;;3.33;;
64609;SDS011;51019;46.090;6.350;2023-08-01T04:20:38;11.30;;;3.25;;
64609;SDS011;51019;46.090;6.350;2023-08-01T04:23:06;10.60;;;3.40;;
64609;SDS011;51019;46.090;6.350;2023-08-01T04:25:34;13.82;;;3.83;;
64609;SDS011;51019;46.090;6.350;2023-08-01T04:28:04;11.38;;;3.63;;
64609;SDS011;51019;46.090;6.350;2023-08-01T04:30:33;11.38;;;3.55;;
64609;SDS011;51019;46.090;6.350;2023-08-01T04:33:03;13.48;;;3.53;;
64609;SDS011;51019;46.090;6.350;2023-08-01T04:35:32;12.45;;;3.70;;
64609;SDS011;51019;46.090;6.350;2023-08-01T04:37:59;12.82;;;3.40;;
64609;SDS011;51019;46.090;6.350;2023-08-01T04:40:27;12.07;;;3.53;;
64609;SDS011;51019;46.090;6.350;2023-08-01T04:42:54;12.52;;;3.67;;
64609;SDS011;51019;46.090;6.350;2023-08-01T04:45:23;10.40;;;3.33;;
64609;SDS011;51019;46.090;6.350;2023-08-01T04:47:53;15.10;;;3.72;;
64609;SDS011;51019;46.090;6.350;2023-08-01T04:50:31;12.85;;;4.03;;
64609;SDS011;51019;46.090;6.350;2023-08-01T04:53:00;16.27;;;3.78;;
64609;SDS011;51019;46.090;6.350;2023-08-01T04:55:32;13.82;;;3.65;;
64609;SDS011;51019;46.090;6.350;2023-08-01T04:58:01;13.32;;;4.30;;
64609;SDS011;51019;46.090;6.350;2023-08-01T05:00:30;11.38;;;3.55;;
64609;SDS011;51019;46.090;6.350;2023-08-01T05:02:57;10.95;;;3.20;;
64609;SDS011;51019;46.090;6.350;2023-08-01T05:05:24;13.55;;;3.88;;
64609;SDS011;51019;46.090;6.350;2023-08-01T05:07:55;13.93;;;4.05;;
64609;SDS011;51019;46.090;6.350;2023-08-01T05:10:22;14.35;;;3.92;;
64609;SDS011;51019;46.090;6.350;2023-08-01T05:12:49;13.25;;;3.83;;
64609;SDS011;51019;46.090;6.350;2023-08-01T05:15:17;12.65;;;4.10;;
64609;SDS011;51019;46.090;6.350;2023-08-01T05:17:45;13.20;;;3.90;;
64609;SDS011;51019;46.090;6.350;2023-08-01T05:20:12;10.93;;;3.35;;
64609;SDS011;51019;46.090;6.350;2023-08-01T05:22:39;13.20;;;3.67;;
64609;SDS011;51019;46.090;6.350;2023-08-01T05:25:07;15.00;;;4.28;;
64609;SDS011;51019;46.090;6.350;2023-08-01T05:27:34;14.25;;;3.78;;
64609;SDS011;51019;46.090;6.350;2023-08-01T05:30:10;13.98;;;3.75;;
64609;SDS011;51019;46.090;6.350;2023-08-01T05:32:38;13.82;;;4.00;;
64609;SDS011;51019;46.090;6.350;2023-08-01T05:35:08;13.60;;;3.40;;
64609;SDS011;51019;46.090;6.350;2023-08-01T05:37:36;13.80;;;3.80;;
64609;SDS011;51019;46.090;6.350;2023-08-01T05:40:03;12.32;;;3.95;;
64609;SDS011;51019;46.090;6.350;2023-08-01T05:42:31;12.25;;;3.88;;
64609;SDS011;51019;46.090;6.350;2023-08-01T05:44:58;12.88;;;3.70;;
64609;SDS011;51019;46.090;6.350;2023-08-01T05:47:26;14.10;;;4.30;;
64609;SDS011;51019;46.090;6.350;2023-08-01T05:49:54;13.70;;;3.97;;
64609;SDS011;51019;46.090;6.350;2023-08-01T05:52:22;11.80;;;3.53;;
64609;SDS011;51019;46.090;6.350;2023-08-01T05:54:49;13.38;;;4.05;;
64609;SDS011;51019;46.090;6.350;2023-08-01T05:57:17;34.20;;;7.00;;
64609;SDS011;51019;46.090;6.350;2023-08-01T05:59:44;49.95;;;6.80;;
64609;SDS011;51019;46.090;6.350;2023-08-01T06:02:11;46.88;;;6.22;;
64609;SDS011;51019;46.090;6.350;2023-08-01T06:04:38;14.65;;;3.55;;
64609;SDS011;51019;46.090;6.350;2023-08-01T06:07:05;12.75;;;3.85;;
64609;SDS011;51019;46.090;6.350;2023-08-01T06:09:34;12.93;;;3.60;;
64609;SDS011;51019;46.090;6.350;2023-08-01T06:12:02;13.10;;;3.65;;
64609;SDS011;51019;46.090;6.350;2023-08-01T06:14:29;13.70;;;3.22;;
64609;SDS011;51019;46.090;6.350;2023-08-01T06:16:56;11.77;;;3.70;;
64609;SDS011;51019;46.090;6.350;2023-08-01T06:19:23;14.32;;;4.00;;
64609;SDS011;51019;46.090;6.350;2023-08-01T06:21:50;18.88;;;4.72;;
64609;SDS011;51019;46.090;6.350;2023-08-01T06:24:17;15.57;;;4.25;;
64609;SDS011;51019;46.090;6.350;2023-08-01T06:26:46;12.75;;;3.95;;
64609;SDS011;51019;46.090;6.350;2023-08-01T06:29:13;13.68;;;3.72;;
64609;SDS011;51019;46.090;6.350;2023-08-01T06:31:40;12.73;;;3.90;;
64609;SDS011;51019;46.090;6.350;2023-08-01T06:34:07;12.75;;;3.80;;
64609;SDS011;51019;46.090;6.350;2023-08-01T06:36:34;13.23;;;3.78;;
64609;SDS011;51019;46.090;6.350;2023-08-01T06:39:01;15.65;;;3.90;;
64609;SDS011;51019;46.090;6.350;2023-08-01T06:41:28;14.68;;;3.90;;
64609;SDS011;51019;46.090;6.350;2023-08-01T06:43:57;13.38;;;4.25;;
64609;SDS011;51019;46.090;6.350;2023-08-01T06:46:24;11.77;;;3.78;;
64609;SDS011;51019;46.090;6.350;2023-08-01T06:48:51;14.57;;;4.15;;
64609;SDS011;51019;46.090;6.350;2023-08-01T06:51:18;14.52;;;4.25;;
64609;SDS011;51019;46.090;6.350;2023-08-01T06:53:45;16.20;;;3.95;;
64609;SDS011;51019;46.090;6.350;2023-08-01T06:56:13;15.43;;;4.10;;
64609;SDS011;51019;46.090;6.350;2023-08-01T06:58:40;15.07;;;4.05;;
64609;SDS011;51019;46.090;6.350;2023-08-01T07:01:11;15.07;;;4.10;;
64609;SDS011;51019;46.090;6.350;2023-08-01T07:03:38;11.98;;;3.47;;
64609;SDS011;51019;46.090;6.350;2023-08-01T07:06:07;12.82;;;3.75;;
64609;SDS011;51019;46.090;6.350;2023-08-01T07:08:35;13.13;;;4.10;;
64609;SDS011;51019;46.090;6.350;2023-08-01T07:11:02;12.98;;;3.45;;
64609;SDS011;51019;46.090;6.350;2023-08-01T07:13:29;11.82;;;3.47;;
64609;SDS011;51019;46.090;6.350;2023-08-01T07:15:56;16.25;;;3.70;;
64609;SDS011;51019;46.090;6.350;2023-08-01T07:18:25;12.82;;;3.90;;
64609;SDS011;51019;46.090;6.350;2023-08-01T07:20:58;15.20;;;3.75;;
64609;SDS011;51019;46.090;6.350;2023-08-01T07:23:26;14.57;;;4.40;;
64609;SDS011;51019;46.090;6.350;2023-08-01T07:25:53;13.77;;;4.20;;
64609;SDS011;51019;46.090;6.350;2023-08-01T07:28:20;13.65;;;3.67;;
64609;SDS011;51019;46.090;6.350;2023-08-01T07:30:48;12.75;;;4.25;;
64609;SDS011;51019;46.090;6.350;2023-08-01T07:33:25;14.25;;;4.13;;
64609;SDS011;51019;46.090;6.350;2023-08-01T07:35:52;12.52;;;3.95;;
64609;SDS011;51019;46.090;6.350;2023-08-01T07:38:19;12.73;;;3.78;;
64609;SDS011;51019;46.090;6.350;2023-08-01T07:40:46;12.55;;;3.60;;
64609;SDS011;51019;46.090;6.350;2023-08-01T07:43:14;16.30;;;4.55;;
64609;SDS011;51019;46.090;6.350;2023-08-01T07:45:41;12.77;;;3.88;;
64609;SDS011;51019;46.090;6.350;2023-08-01T07:48:08;12.50;;;3.72;;
64609;SDS011;51019;46.090;6.350;2023-08-01T07:50:36;12.70;;;3.85;;
64609;SDS011;51019;46.090;6.350;2023-08-01T07:53:04;13.80;;;4.40;;
64609;SDS011;51019;46.090;6.350;2023-08-01T07:55:33;12.15;;;3.97;;
64609;SDS011;51019;46.090;6.350;2023-08-01T07:58:00;13.75;;;3.50;;
64609;SDS011;51019;46.090;6.350;2023-08-01T08:00:28;15.25;;;4.55;;
64609;SDS011;51019;46.090;6.350;2023-08-01T08:02:55;15.52;;;4.20;;
64609;SDS011;51019;46.090;6.350;2023-08-01T08:05:22;13.32;;;3.90;;
64609;SDS011;51019;46.090;6.350;2023-08-01T08:07:51;14.27;;;4.15;;
64609;SDS011;51019;46.090;6.350;2023-08-01T08:10:18;12.80;;;3.88;;
64609;SDS011;51019;46.090;6.350;2023-08-01T08:12:45;12.13;;;3.75;;
64609;SDS011;51019;46.090;6.350;2023-08-01T08:15:12;14.20;;;4.00;;
64609;SDS011;51019;46.090;6.350;2023-08-01T08:17:41;13.90;;;4.07;;
64609;SDS011;51019;46.090;6.350;2023-08-01T08:20:08;14.63;;;4.40;;
64609;SDS011;51019;46.090;6.350;2023-08-01T08:22:36;14.23;;;4.28;;
64609;SDS011;51019;46.090;6.350;2023-08-01T08:25:06;14.07;;;3.90;;
64609;SDS011;51019;46.090;6.350;2023-08-01T08:27:33;11.90;;;4.07;;
64609;SDS011;51019;46.090;6.350;2023-08-01T08:30:00;18.08;;;4.15;;
64609;SDS011;51019;46.090;6.350;2023-08-01T08:32:29;12.25;;;3.65;;
64609;SDS011;51019;46.090;6.350;2023-08-01T08:34:58;12.70;;;3.65;;
64609;SDS011;51019;46.090;6.350;2023-08-01T08:37:25;13.00;;;3.80;;
64609;SDS011;51019;46.090;6.350;2023-08-01T08:39:52;13.18;;;4.18;;
64609;SDS011;51019;46.090;6.350;2023-08-01T08:42:21;13.98;;;4.05;;
64609;SDS011;51019;46.090;6.350;2023-08-01T08:44:49;12.95;;;3.90;;
64609;SDS011;51019;46.090;6.350;2023-08-01T08:47:21;12.90;;;3.75;;
64609;SDS011;51019;46.090;6.350;2023-08-01T08:49:50;15.40;;;4.03;;
64609;SDS011;51019;46.090;6.350;2023-08-01T08:52:19;17.17;;;4.03;;
64609;SDS011;51019;46.090;6.350;2023-08-01T08:54:46;14.73;;;3.70;;
64609;SDS011;51019;46.090;6.350;2023-08-01T08:57:15;13.15;;;3.78;;
64609;SDS011;51019;46.090;6.350;2023-08-01T08:59:46;14.32;;;4.80;;
64609;SDS011;51019;46.090;6.350;2023-08-01T09:02:14;16.42;;;4.22;;
64609;SDS011;51019;46.090;6.350;2023-08-01T09:04:42;14.93;;;4.53;;
64609;SDS011;51019;46.090;6.350;2023-08-01T09:07:10;14.23;;;3.80;;
64609;SDS011;51019;46.090;6.350;2023-08-01T09:09:37;13.07;;;4.13;;
64609;SDS011;51019;46.090;6.350;2023-08-01T09:12:05;11.77;;;3.83;;
64609;SDS011;51019;46.090;6.350;2023-08-01T09:14:34;12.38;;;3.60;;
64609;SDS011;51019;46.090;6.350;2023-08-01T09:17:09;13.00;;;3.90;;
64609;SDS011;51019;46.090;6.350;2023-08-01T09:19:37;15.00;;;4.53;;
64609;SDS011;51019;46.090;6.350;2023-08-01T09:22:09;13.32;;;4.18;;
64609;SDS011;51019;46.090;6.350;2023-08-01T09:24:38;12.52;;;4.18;;
64609;SDS011;51019;46.090;6.350;2023-08-01T09:27:05;14.52;;;4.28;;
64609;SDS011;51019;46.090;6.350;2023-08-01T09:29:33;13.00;;;4.50;;
64609;SDS011;51019;46.090;6.350;2023-08-01T09:32:12;13.52;;;4.38;;
64609;SDS011;51019;46.090;6.350;2023-08-01T09:34:41;13.77;;;4.28;;
64609;SDS011;51019;46.090;6.350;2023-08-01T09:37:10;11.82;;;3.88;;
64609;SDS011;51019;46.090;6.350;2023-08-01T09:39:37;15.45;;;4.40;;
64609;SDS011;51019;46.090;6.350;2023-08-01T09:42:07;15.27;;;3.97;;
64609;SDS011;51019;46.090;6.350;2023-08-01T09:44:38;12.48;;;4.18;;
64609;SDS011;51019;46.090;6.350;2023-08-01T09:47:16;12.45;;;3.90;;
64609;SDS011;51019;46.090;6.350;2023-08-01T09:49:49;13.18;;;4.15;;
64609;SDS011;51019;46.090;6.350;2023-08-01T09:52:26;13.40;;;3.88;;
64609;SDS011;51019;46.090;6.350;2023-08-01T09:54:56;13.82;;;4.25;;
64609;SDS011;51019;46.090;6.350;2023-08-01T09:57:25;11.77;;;3.78;;
64609;SDS011;51019;46.090;6.350;2023-08-01T10:00:01;13.27;;;4.20;;
64609;SDS011;51019;46.090;6.350;2023-08-01T10:02:37;12.23;;;3.60;;
64609;SDS011;51019;46.090;6.350;2023-08-01T10:05:08;11.80;;;3.60;;
64609;SDS011;51019;46.090;6.350;2023-08-01T10:07:47;11.25;;;3.60;;
64609;SDS011;51019;46.090;6.350;2023-08-01T10:10:18;12.98;;;3.15;;
64609;SDS011;51019;46.090;6.350;2023-08-01T10:12:56;14.93;;;3.55;;
64609;SDS011;51019;46.090;6.350;2023-08-01T10:15:24;13.00;;;3.65;;
64609;SDS011;51019;46.090;6.350;2023-08-01T10:18:05;11.05;;;2.90;;
64609;SDS011;51019;46.090;6.350;2023-08-01T10:21:04;9.88;;;2.92;;
64609;SDS011;51019;46.090;6.350;2023-08-01T10:23:54;9.98;;;2.53;;
64609;SDS011;51019;46.090;6.350;2023-08-01T10:26:22;9.23;;;2.47;;
64609;SDS011;51019;46.090;6.350;2023-08-01T10:28:52;10.40;;;2.95;;
64609;SDS011;51019;46.090;6.350;2023-08-01T10:31:38;10.48;;;2.85;;
64609;SDS011;51019;46.090;6.350;2023-08-01T10:34:20;17.80;;;3.08;;
64609;SDS011;51019;46.090;6.350;2023-08-01T10:36:54;9.35;;;2.67;;
64609;SDS011;51019;46.090;6.350;2023-08-01T10:39:21;11.40;;;2.90;;
64609;SDS011;51019;46.090;6.350;2023-08-01T10:41:56;9.85;;;2.65;;
64609;SDS011;51019;46.090;6.350;2023-08-01T10:44:25;9.75;;;2.65;;
64609;SDS011;51019;46.090;6.350;2023-08-01T10:46:54;11.13;;;3.17;;
64609;SDS011;51019;46.090;6.350;2023-08-01T10:49:36;8.82;;;2.47;;
64609;SDS011;51019;46.090;6.350;2023-08-01T10:54:58;10.50;;;2.78;;
64609;SDS011;51019;46.090;6.350;2023-08-01T11:00:45;10.00;;;2.70;;
64609;SDS011;51019;46.090;6.350;2023-08-01T11:03:13;8.38;;;2.67;;
64609;SDS011;51019;46.090;6.350;2023-08-01T11:05:43;10.23;;;2.60;;
64609;SDS011;51019;46.090;6.350;2023-08-01T11:08:11;8.55;;;2.25;;
64609;SDS011;51019;46.090;6.350;2023-08-01T11:10:38;7.93;;;2.00;;
64609;SDS011;51019;46.090;6.350;2023-08-01T11:13:05;8.57;;;2.25;;
64609;SDS011;51019;46.090;6.350;2023-08-01T11:15:32;9.07;;;2.40;;
64609;SDS011;51019;46.090;6.350;2023-08-01T11:18:04;10.43;;;2.53;;
64609;SDS011;51019;46.090;6.350;2023-08-01T11:20:38;11.27;;;2.50;;
64609;SDS011;51019;46.090;6.350;2023-08-01T11:23:12;9.77;;;2.38;;
64609;SDS011;51019;46.090;6.350;2023-08-01T11:25:40;9.77;;;2.70;;
64609;SDS011;51019;46.090;6.350;2023-08-01T11:28:10;10.82;;;2.67;;
64609;SDS011;51019;46.090;6.350;2023-08-01T11:30:40;10.50;;;2.80;;
64609;SDS011;51019;46.090;6.350;2023-08-01T11:33:15;12.88;;;3.35;;
64609;SDS011;51019;46.090;6.350;2023-08-01T11:35:45;10.40;;;2.47;;
64609;SDS011;51019;46.090;6.350;2023-08-01T11:38:14;11.57;;;2.85;;
64609;SDS011;51019;46.090;6.350;2023-08-01T11:40:42;9.70;;;2.70;;
64609;SDS011;51019;46.090;6.350;2023-08-01T11:43:11;9.52;;;2.72;;
64609;SDS011;51019;46.090;6.350;2023-08-01T11:45:47;10.20;;;2.97;;
64609;SDS011;51019;46.090;6.350;2023-08-01T11:48:19;10.93;;;3.30;;
64609;SDS011;51019;46.090;6.350;2023-08-01T11:50:49;11.48;;;2.42;;
64609;SDS011;51019;46.090;6.350;2023-08-01T11:53:25;10.55;;;2.47;;
64609;SDS011;51019;46.090;6.350;2023-08-01T11:55:55;9.65;;;2.65;;
64609;SDS011;51019;46.090;6.350;2023-08-01T11:58:29;9.68;;;2.60;;
64609;SDS011;51019;46.090;6.350;2023-08-01T12:01:04;9.88;;;2.83;;
64609;SDS011;51019;46.090;6.350;2023-08-01T12:03:41;9.80;;;2.67;;
64609;SDS011;51019;46.090;6.350;2023-08-01T12:06:11;9.00;;;2.90;;
64609;SDS011;51019;46.090;6.350;2023-08-01T12:08:50;9.13;;;2.55;;
64609;SDS011;51019;46.090;6.350;2023-08-01T12:11:20;9.82;;;2.55;;
64609;SDS011;51019;46.090;6.350;2023-08-01T12:14:00;9.07;;;2.17;;
64609;SDS011;51019;46.090;6.350;2023-08-01T12:16:29;8.25;;;2.53;;
64609;SDS011;51019;46.090;6.350;2023-08-01T12:19:00;11.18;;;2.63;;
64609;SDS011;51019;46.090;6.350;2023-08-01T12:21:29;10.48;;;3.28;;
64609;SDS011;51019;46.090;6.350;2023-08-01T12:24:01;8.70;;;2.33;;
64609;SDS011;51019;46.090;6.350;2023-08-01T12:26:28;8.82;;;2.50;;
64609;SDS011;51019;46.090;6.350;2023-08-01T12:29:02;9.38;;;2.42;;
64609;SDS011;51019;46.090;6.350;2023-08-01T12:31:44;8.18;;;2.28;;
64609;SDS011;51019;46.090;6.350;2023-08-01T12:34:12;9.40;;;2.50;;
64609;SDS011;51019;46.090;6.350;2023-08-01T12:36:41;9.73;;;2.40;;
64609;SDS011;51019;46.090;6.350;2023-08-01T12:39:15;10.07;;;2.50;;
64609;SDS011;51019;46.090;6.350;2023-08-01T12:41:44;13.30;;;2.70;;
64609;SDS011;51019;46.090;6.350;2023-08-01T12:44:14;9.65;;;2.65;;
64609;SDS011;51019;46.090;6.350;2023-08-01T12:46:44;10.65;;;2.80;;
64609;SDS011;51019;46.090;6.350;2023-08-01T12:49:15;10.27;;;2.63;;
64609;SDS011;51019;46.090;6.350;2023-08-01T12:51:44;10.82;;;2.90;;
64609;SDS011;51019;46.090;6.350;2023-08-01T12:54:13;12.95;;;2.90;;
64609;SDS011;51019;46.090;6.350;2023-08-01T12:56:43;9.65;;;2.40;;
64609;SDS011;51019;46.090;6.350;2023-08-01T12:59:11;9.73;;;2.70;;
64609;SDS011;51019;46.090;6.350;2023-08-01T13:01:39;13.55;;;2.80;;
64609;SDS011;51019;46.090;6.350;2023-08-01T13:04:09;10.48;;;2.50;;
64609;SDS011;51019;46.090;6.350;2023-08-01T13:06:38;11.40;;;3.00;;
64609;SDS011;51019;46.090;6.350;2023-08-01T13:09:08;12.57;;;2.92;;
64609;SDS011;51019;46.090;6.350;2023-08-01T13:11:40;11.07;;;2.67;;
64609;SDS011;51019;46.090;6.350;2023-08-01T13:14:08;9.30;;;2.85;;
64609;SDS011;51019;46.090;6.350;2023-08-01T13:16:38;11.98;;;3.03;;
64609;SDS011;51019;46.090;6.350;2023-08-01T13:19:08;11.15;;;2.70;;
64609;SDS011;51019;46.090;6.350;2023-08-01T13:21:35;10.80;;;2.70;;
64609;SDS011;51019;46.090;6.350;2023-08-01T13:24:03;9.82;;;2.47;;
64609;SDS011;51019;46.090;6.350;2023-08-01T13:26:33;12.27;;;3.15;;
64609;SDS011;51019;46.090;6.350;2023-08-01T13:29:04;9.35;;;2.38;;
64609;SDS011;51019;46.090;6.350;2023-08-01T13:31:34;13.88;;;2.90;;
64609;SDS011;51019;46.090;6.350;2023-08-01T13:34:04;9.43;;;2.75;;
64609;SDS011;51019;46.090;6.350;2023-08-01T13:36:33;10.93;;;2.90;;
64609;SDS011;51019;46.090;6.350;2023-08-01T13:39:02;10.63;;;2.67;;
64609;SDS011;51019;46.090;6.350;2023-08-01T13:41:30;12.60;;;3.08;;
64609;SDS011;51019;46.090;6.350;2023-08-01T13:43:58;10.30;;;2.97;;
64609;SDS011;51019;46.090;6.350;2023-08-01T13:46:29;10.45;;;2.92;;
64609;SDS011;51019;46.090;6.350;2023-08-01T13:48:57;12.35;;;2.90;;
64609;SDS011;51019;46.090;6.350;2023-08-01T13:51:27;13.75;;;3.20;;
64609;SDS011;51019;46.090;6.350;2023-08-01T13:54:03;12.07;;;3.00;;
64609;SDS011;51019;46.090;6.350;2023-08-01T13:56:33;11.95;;;2.58;;
64609;SDS011;51019;46.090;6.350;2023-08-01T13:59:10;12.27;;;3.22;;
64609;SDS011;51019;46.090;6.350;2023-08-01T14:01:45;13.80;;;3.08;;
64609;SDS011;51019;46.090;6.350;2023-08-01T14:04:12;10.27;;;2.80;;
64609;SDS011;51019;46.090;6.350;2023-08-01T14:06:43;11.10;;;2.90;;
64609;SDS011;51019;46.090;6.350;2023-08-01T14:09:11;11.55;;;3.03;;
64609;SDS011;51019;46.090;6.350;2023-08-01T14:11:41;11.30;;;2.75;;
64609;SDS011;51019;46.090;6.350;2023-08-01T14:14:11;12.00;;;2.78;;
64609;SDS011;51019;46.090;6.350;2023-08-01T14:16:38;9.30;;;2.60;;
64609;SDS011;51019;46.090;6.350;2023-08-01T14:19:10;10.48;;;2.75;;
64609;SDS011;51019;46.090;6.350;2023-08-01T14:21:39;9.65;;;2.58;;
64609;SDS011;51019;46.090;6.350;2023-08-01T14:24:07;11.30;;;2.67;;
64609;SDS011;51019;46.090;6.350;2023-08-01T14:26:35;11.25;;;2.70;;
64609;SDS011;51019;46.090;6.350;2023-08-01T14:29:04;11.50;;;2.78;;
64609;SDS011;51019;46.090;6.350;2023-08-01T14:31:36;9.95;;;2.50;;
64609;SDS011;51019;46.090;6.350;2023-08-01T14:34:06;8.98;;;2.50;;
64609;SDS011;51019;46.090;6.350;2023-08-01T14:36:37;10.25;;;2.60;;
64609;SDS011;51019;46.090;6.350;2023-08-01T14:39:05;9.65;;;2.50;;
64609;SDS011;51019;46.090;6.350;2023-08-01T14:41:33;9.38;;;2.58;;
64609;SDS011;51019;46.090;6.350;2023-08-01T14:44:01;11.77;;;2.42;;
64609;SDS011;51019;46.090;6.350;2023-08-01T14:46:30;7.93;;;2.13;;
64609;SDS011;51019;46.090;6.350;2023-08-01T14:48:57;8.25;;;2.35;;
64609;SDS011;51019;46.090;6.350;2023-08-01T14:51:24;8.10;;;2.33;;
64609;SDS011;51019;46.090;6.350;2023-08-01T14:53:54;10.15;;;2.65;;
64609;SDS011;51019;46.090;6.350;2023-08-01T14:56:22;8.82;;;2.60;;